Сухона

Карта отелей и гостиниц, располагающихся рядом с аэропортом Сухона :

Сухона Вологодская область 59° 18' 45.0612" N, 40° 38' 12.5412" E
Код аэродрома ИКАО
HDD3
Код аэродрома RU
ХДД3
Координаты
N59.31252° E040.63682°
Превышение над уровнем моря
110
Основная полоса
04/22
Курс магнитный
037/217
Длина основной ВПП
25
Ширина основной ВПП
25
Покрытие основной ВПП
Твёрдое (бетон)
Освещение ВПП
Нет
Тип: 
Вертодром
Класс аэродрома: 
Принадлежность: 
АОН
Статус: 
Действующий
Сайт: 
E-mail аэродрома: 
Страна: 
Россия
Регион: 
Вологодская область
Город: 
Дополнительная информация: 


Найти трансфер

С помощью этой формы Вы можете найти трансфер из аэропорта Сухона в город, аэропорт или вокзал:

Погода в аэропортах:

Авиационная погода в Игнатьево

Регион: 
Погода METAR: 
UHBB 290730Z 09003MPS 9999 -SHRA BKN026CB 14/12 Q0998 R36/090060 NOSIG RMK QFE731/0975
Время наблюдения
2022-05-29T07:30:00Z
Температура C
14.0
Точка росы
12.0
Направление ветра
90
Скорость ветра (узлы)
6
Метео видимость
6.21
Облачность
BKN
Нижняя граница облачности (футы)
2600
Явления погоды
-SHRA
Условия полета
MVFR
Аэропорт подробнее: 
BKN – значительная (рассеянная, разорванная) облачность;
-SHRA - слабый ливневой дождь;

Авиационная погода в Каяани

Регион: 
Погода METAR: 
EFKI 290720Z AUTO 04005KT 350V080 9999 -SHRA SCT009 OVC050 //////CB 12/11 Q1004
Время наблюдения
2022-05-29T07:20:00Z
Температура C
12.0
Точка росы
11.0
Направление ветра
40
Скорость ветра (узлы)
5
Метео видимость
6.21
Облачность
SCT
OVC
Нижняя граница облачности (футы)
900
5000
Явления погоды
-SHRA
Условия полета
VFR
SCT – разбросанная отдельная облачность; OVC – сплошная облачность;
-SHRA - слабый ливневой дождь;

Авиационная погода в Ивало

Регион: 
Погода METAR: 
EFIV 290720Z AUTO 02010KT 9999 -RA BKN017 08/06 Q1012
Время наблюдения
2022-05-29T07:20:00Z
Температура C
8.0
Точка росы
6.0
Направление ветра
20
Скорость ветра (узлы)
10
Метео видимость
6.21
Облачность
BKN
Нижняя граница облачности (футы)
1700
Явления погоды
-RA
Условия полета
MVFR
BKN – значительная (рассеянная, разорванная) облачность;
-RA - слабый дождь;

Авиационная погода в Бухте Провидения

Погода METAR: 
UHMD 270400Z 18005MPS 6000 BCFG SCT006 02/00 Q1016 RMK QBB200 MT OBSC QFE761/1015
Время наблюдения
2022-05-27T04:00:00Z
Температура C
2.0
Точка росы
0.0
Направление ветра
180
Скорость ветра (узлы)
10
Метео видимость
3.73
Облачность
SCT
Нижняя граница облачности (футы)
600
Явления погоды
BCFG
Условия полета
MVFR
Аэропорт подробнее: 
SCT – разбросанная отдельная облачность;
FG – туман (небо не видно, температура воздуха выше нуля или ноль);